Time;durP1;ratioP1;P1;durP2;ratioP2;P2;SDS_P1;SDS_P2;PMS_P1;PMS_P2;Temp;Humidity;BMP_temperature;BMP_pressure;BME280_temperature;BME280_humidity;BME280_pressure;Samples;Min_cycle;Max_cycle;Signal;HPM_P1;HPM_P2
2024/02/16 00:00:12;;;;;;;36.08;22.13;;;8.20;99.90;;;;;;5082313;28;20016;-65
2024/02/16 00:02:39;;;;;;;37.67;22.02;;;8.20;92.10;;;;;;5082228;28;20024;-65
2024/02/16 00:05:07;;;;;;;41.17;20.48;;;8.20;92.30;;;;;;5082108;28;20599;-66
2024/02/16 00:07:33;;;;;;;34.10;20.45;;;8.10;92.40;;;;;;5082165;28;20026;-65
2024/02/16 00:09:59;;;;;;;39.95;20.98;;;8.10;92.40;;;;;;5075650;28;20553;-65
2024/02/16 00:12:25;;;;;;;39.45;19.48;;;8.10;92.50;;;;;;5066134;28;20029;-65
2024/02/16 00:14:51;;;;;;;38.30;21.40;;;8.00;92.60;;;;;;5061814;28;20052;-65
2024/02/16 00:17:16;;;;;;;33.10;20.75;;;8.10;99.90;;;;;;5061793;28;20029;-65
2024/02/16 00:19:42;;;;;;;39.25;20.73;;;7.90;92.90;;;;;;5062013;28;20028;-65
2024/02/16 00:22:08;;;;;;;33.50;19.92;;;7.80;92.90;;;;;;5061629;28;20017;-65
2024/02/16 00:24:36;;;;;;;36.40;21.92;;;7.80;93.10;;;;;;5061771;28;20036;-65
2024/02/16 00:27:05;;;;;;;35.53;19.90;;;7.80;93.30;;;;;;5061796;28;20033;-65
2024/02/16 00:29:33;;;;;;;34.95;21.25;;;7.60;99.90;;;;;;5074863;28;20057;-65
2024/02/16 00:31:59;;;;;;;33.78;20.25;;;7.60;93.70;;;;;;5081480;28;20039;-65
2024/02/16 00:34:25;;;;;;;37.25;19.52;;;7.50;99.90;;;;;;5081353;28;20107;-65
2024/02/16 00:36:52;;;;;;;36.28;21.00;;;7.50;94.10;;;;;;5081470;28;20085;-64
2024/02/16 00:39:18;;;;;;;36.75;22.17;;;7.50;99.90;;;;;;5081694;28;20032;-65
2024/02/16 00:41:43;;;;;;;39.05;21.55;;;7.30;99.90;;;;;;5080220;28;20044;-65
2024/02/16 00:44:09;;;;;;;39.28;20.55;;;7.30;94.80;;;;;;5081241;28;20408;-65
2024/02/16 00:46:37;;;;;;;37.42;21.77;;;7.20;95.00;;;;;;5081421;28;20028;-65
2024/02/16 00:49:03;;;;;;;40.08;22.42;;;7.10;95.10;;;;;;5081208;28;20089;-64
2024/02/16 00:51:29;;;;;;;38.28;21.95;;;7.00;95.40;;;;;;5081126;28;20332;-63
2024/02/16 00:53:55;;;;;;;36.13;20.48;;;7.00;95.70;;;;;;5080731;28;20028;-64
2024/02/16 00:56:21;;;;;;;41.85;21.20;;;6.90;95.90;;;;;;5081353;28;20359;-64
2024/02/16 00:58:46;;;;;;;40.10;22.48;;;6.80;99.90;;;;;;5081387;28;20036;-64
2024/02/16 01:01:12;;;;;;;39.65;22.60;;;6.80;96.50;;;;;;5081021;28;20074;-64
2024/02/16 01:03:38;;;;;;;39.42;21.17;;;6.80;96.80;;;;;;5081174;28;20062;-63
2024/02/16 01:06:05;;;;;;;36.58;21.00;;;6.90;99.90;;;;;;5081163;28;20296;-64
2024/02/16 01:08:31;;;;;;;39.83;22.70;;;6.70;99.90;;;;;;5081234;28;20028;-63
2024/02/16 01:10:57;;;;;;;39.85;22.15;;;6.70;97.20;;;;;;5080816;28;20412;-64
2024/02/16 01:13:23;;;;;;;42.83;23.27;;;6.70;97.40;;;;;;5080809;28;20024;-63
2024/02/16 01:15:48;;;;;;;44.25;24.60;;;6.70;97.60;;;;;;5086703;28;20024;-64
2024/02/16 01:18:15;;;;;;;45.50;23.50;;;6.60;99.90;;;;;;5101178;28;20040;-64
2024/02/16 01:20:41;;;;;;;39.67;22.48;;;6.70;97.90;;;;;;5101235;28;20024;-64
2024/02/16 01:23:06;;;;;;;35.22;21.50;;;6.70;99.90;;;;;;5101182;28;20065;-64
2024/02/16 01:25:32;;;;;;;40.55;21.33;;;6.60;98.10;;;;;;5101163;28;20024;-64
2024/02/16 01:27:58;;;;;;;60.38;23.50;;;6.70;99.90;;;;;;5100846;28;20028;-64
2024/02/16 01:30:24;;;;;;;42.90;22.65;;;6.60;99.90;;;;;;5084444;28;20028;-64
2024/02/16 01:32:50;;;;;;;41.47;23.30;;;6.60;98.20;;;;;;5092717;28;20339;-64
2024/02/16 01:35:17;;;;;;;36.92;23.33;;;6.60;98.30;;;;;;5080540;28;20291;-64
2024/02/16 01:37:42;;;;;;;42.67;22.27;;;6.60;98.50;;;;;;5073113;28;20044;-64
2024/02/16 01:40:13;;;;;;;40.05;22.65;;;6.50;98.60;;;;;;5060801;28;20025;-64
2024/02/16 01:42:41;;;;;;;40.47;22.65;;;6.50;98.80;;;;;;5060758;28;20083;-64
2024/02/16 01:45:08;;;;;;;37.33;22.30;;;6.50;99.90;;;;;;5060527;28;20021;-64
2024/02/16 01:47:35;;;;;;;42.15;22.58;;;6.40;99.30;;;;;;5077620;28;20063;-64
2024/02/16 01:50:02;;;;;;;41.90;23.05;;;6.40;99.90;;;;;;5078797;28;20016;-64
2024/02/16 01:52:28;;;;;;;40.78;23.40;;;6.40;99.90;;;;;;5101118;28;20031;-64
2024/02/16 01:54:54;;;;;;;42.72;23.88;;;6.20;99.90;;;;;;5100780;28;20079;-64
2024/02/16 01:57:20;;;;;;;39.58;22.83;;;6.20;99.80;;;;;;5100670;28;20055;-64
2024/02/16 01:59:45;;;;;;;42.00;22.95;;;6.20;99.90;;;;;;5100671;28;20020;-65
2024/02/16 02:02:11;;;;;;;42.40;23.25;;;6.20;99.90;;;;;;5100644;28;20074;-63
2024/02/16 02:04:37;;;;;;;40.38;22.35;;;6.10;99.90;;;;;;5102107;28;20087;-63
2024/02/16 02:07:16;;;;;;;40.28;22.42;;;6.00;99.90;;;;;;5104873;28;20020;-63
2024/02/16 02:09:42;;;;;;;39.40;23.42;;;6.00;99.90;;;;;;5104719;28;20472;-64
2024/02/16 02:12:09;;;;;;;42.78;22.63;;;6.00;99.90;;;;;;5104411;28;20089;-63
2024/02/16 02:14:36;;;;;;;39.88;23.40;;;6.00;99.90;;;;;;5104397;28;20063;-65
2024/02/16 02:17:02;;;;;;;40.38;22.00;;;6.00;99.90;;;;;;5104346;28;20315;-65
2024/02/16 02:19:29;;;;;;;40.42;23.73;;;6.00;99.90;;;;;;5079371;28;20036;-64
2024/02/16 02:21:56;;;;;;;38.08;22.33;;;5.90;99.90;;;;;;5084024;28;20028;-64
2024/02/16 02:24:22;;;;;;;41.95;24.23;;;5.90;99.90;;;;;;5083982;28;20320;-64
2024/02/16 02:26:47;;;;;;;46.92;23.27;;;5.90;99.90;;;;;;5084072;28;20048;-64
2024/02/16 02:29:13;;;;;;;44.78;23.27;;;5.90;99.90;;;;;;5084181;28;20319;-64
2024/02/16 02:31:39;;;;;;;46.38;23.73;;;5.90;99.90;;;;;;5084081;28;20348;-64
2024/02/16 02:34:05;;;;;;;39.05;22.02;;;5.90;99.90;;;;;;5083717;28;20252;-64
2024/02/16 02:36:32;;;;;;;48.47;25.23;;;5.80;99.90;;;;;;5083882;28;20033;-64
2024/02/16 02:38:58;;;;;;;41.55;22.52;;;5.80;99.90;;;;;;5083684;28;20074;-64
2024/02/16 02:41:24;;;;;;;38.58;23.20;;;5.50;99.90;;;;;;5083744;28;20028;-64
2024/02/16 02:43:50;;;;;;;42.22;23.33;;;5.60;99.90;;;;;;5083540;28;20095;-63
2024/02/16 02:46:16;;;;;;;41.03;22.73;;;5.70;99.90;;;;;;5083709;28;20024;-64
2024/02/16 02:48:46;;;;;;;38.85;22.38;;;5.70;99.90;;;;;;5083558;28;20016;-64
2024/02/16 02:51:11;;;;;;;;;;;5.60;99.90;;;;;;5083788;28;20330;-64
2024/02/16 02:53:37;;;;;;;43.50;21.25;;;5.50;99.90;;;;;;5083466;28;19935;-64
2024/02/16 02:56:03;;;;;;;40.20;22.95;;;5.60;99.90;;;;;;5083468;28;20221;-64
2024/02/16 02:58:29;;;;;;;39.70;22.23;;;5.60;99.90;;;;;;5083183;28;20099;-64
2024/02/16 03:00:55;;;;;;;43.13;23.35;;;5.50;99.90;;;;;;5083346;28;20031;-64
2024/02/16 03:03:22;;;;;;;47.30;23.33;;;5.50;99.90;;;;;;5083237;28;20382;-64
2024/02/16 03:05:48;;;;;;;46.25;22.25;;;5.50;99.90;;;;;;5081997;28;20511;-64
2024/02/16 03:08:14;;;;;;;42.10;22.85;;;5.50;99.90;;;;;;5083390;28;20032;-64
2024/02/16 03:10:40;;;;;;;46.15;22.77;;;5.60;99.90;;;;;;5083172;28;20210;-63
2024/02/16 03:13:08;;;;;;;41.85;23.67;;;5.40;99.90;;;;;;5082990;28;20350;-64
2024/02/16 03:15:35;;;;;;;41.28;25.02;;;5.40;99.90;;;;;;5082522;28;20024;-65
2024/02/16 03:18:01;;;;;;;41.85;23.25;;;;;;;;;;5082552;28;20036;-64
2024/02/16 03:20:27;;;;;;;41.33;21.33;;;5.50;99.90;;;;;;5081702;28;20355;-64
2024/02/16 03:22:53;;;;;;;43.95;23.33;;;5.40;99.90;;;;;;5083108;28;20021;-64
2024/02/16 03:25:18;;;;;;;42.63;23.15;;;5.40;99.90;;;;;;5083003;28;20373;-64
2024/02/16 03:27:44;;;;;;;43.40;21.65;;;5.50;99.90;;;;;;5083196;28;20386;-64
2024/02/16 03:30:10;;;;;;;43.83;23.33;;;5.30;99.90;;;;;;5083051;28;20029;-64
2024/02/16 03:32:36;;;;;;;41.35;23.30;;;5.50;99.90;;;;;;5082568;28;20228;-65
2024/02/16 03:35:02;;;;;;;44.90;23.02;;;5.50;99.90;;;;;;5082920;28;20037;-64
2024/02/16 03:37:27;;;;;;;39.03;22.23;;;5.60;99.90;;;;;;5082731;28;20090;-64
2024/02/16 03:39:53;;;;;;;41.17;22.98;;;5.50;99.90;;;;;;5082420;28;20047;-64
2024/02/16 03:42:19;;;;;;;43.42;23.38;;;5.60;99.90;;;;;;5081376;28;20036;-64
2024/02/16 03:44:45;;;;;;;41.80;22.50;;;5.50;99.90;;;;;;5082369;28;20040;-64
2024/02/16 03:47:11;;;;;;;41.53;21.27;;;5.30;99.90;;;;;;5082430;28;20346;-64
2024/02/16 03:49:37;;;;;;;42.00;22.77;;;5.40;99.90;;;;;;5082306;28;20036;-64
2024/02/16 03:52:03;;;;;;;39.28;22.27;;;5.40;99.90;;;;;;5082197;28;20039;-64
2024/02/16 03:54:29;;;;;;;40.40;21.35;;;5.40;99.90;;;;;;5082224;28;20114;-64
2024/02/16 03:56:55;;;;;;;46.58;23.90;;;5.40;99.90;;;;;;5082265;28;20096;-64
2024/02/16 03:59:21;;;;;;;41.28;22.45;;;5.40;99.90;;;;;;5082394;28;20040;-66
2024/02/16 04:01:47;;;;;;;39.90;22.73;;;5.30;99.90;;;;;;5082079;28;20024;-65
2024/02/16 04:04:12;;;;;;;45.92;23.52;;;5.40;99.90;;;;;;5082143;28;20034;-65
2024/02/16 04:06:38;;;;;;;38.50;22.58;;;5.40;99.90;;;;;;5081992;28;20044;-65
2024/02/16 04:09:07;;;;;;;39.83;22.42;;;5.40;99.90;;;;;;5081927;28;20040;-65
2024/02/16 04:11:33;;;;;;;39.65;22.08;;;5.40;99.90;;;;;;5084068;28;20039;-65
2024/02/16 04:13:59;;;;;;;43.53;23.13;;;5.30;99.90;;;;;;5102110;28;20526;-65
2024/02/16 04:16:25;;;;;;;44.72;23.88;;;5.50;99.90;;;;;;5102381;28;20024;-65
2024/02/16 04:18:51;;;;;;;44.08;22.27;;;5.40;99.90;;;;;;5102082;28;20036;-65
2024/02/16 04:21:17;;;;;;;37.95;20.55;;;5.30;99.90;;;;;;5102047;28;20027;-65
2024/02/16 04:23:44;;;;;;;39.85;23.10;;;5.40;99.90;;;;;;5101996;28;20032;-64
2024/02/16 04:26:09;;;;;;;38.85;21.30;;;5.50;99.90;;;;;;5101960;28;20200;-64
2024/02/16 04:28:36;;;;;;;40.72;21.90;;;5.30;99.90;;;;;;5096538;28;20032;-65
2024/02/16 04:31:01;;;;;;;39.63;21.75;;;5.40;99.90;;;;;;5093047;28;20248;-65
2024/02/16 04:33:27;;;;;;;39.42;21.40;;;5.30;99.90;;;;;;5101801;28;20070;-64
2024/02/16 04:35:53;;;;;;;41.75;22.42;;;5.10;99.90;;;;;;5102053;28;20050;-65
2024/02/16 04:38:19;;;;;;;42.72;22.92;;;5.10;99.90;;;;;;5102984;28;20036;-66
2024/02/16 04:40:45;;;;;;;34.40;20.52;;;5.20;99.90;;;;;;5103173;28;20208;-64
2024/02/16 04:43:11;;;;;;;41.80;22.38;;;5.10;99.90;;;;;;5102562;28;20351;-64
2024/02/16 04:45:36;;;;;;;45.40;22.70;;;5.10;99.90;;;;;;5102764;28;20020;-65
2024/02/16 04:48:06;;;;;;;35.17;20.83;;;5.10;99.90;;;;;;5102589;28;20028;-64
2024/02/16 04:50:33;;;;;;;38.47;20.73;;;5.10;99.90;;;;;;5102936;28;20032;-66
2024/02/16 04:52:59;;;;;;;38.55;20.70;;;5.10;99.90;;;;;;5102617;28;20036;-65
2024/02/16 04:55:24;;;;;;;37.30;19.13;;;5.00;99.90;;;;;;5102615;28;20077;-68
2024/02/16 04:57:51;;;;;;;42.35;20.88;;;5.00;99.90;;;;;;5102517;28;20103;-64
2024/02/16 05:00:16;;;;;;;34.05;19.48;;;5.00;99.90;;;;;;5101875;28;20031;-64
2024/02/16 05:02:42;;;;;;;33.13;19.08;;;5.00;99.90;;;;;;5101346;28;20339;-64
2024/02/16 05:05:08;;;;;;;35.33;19.38;;;5.10;99.90;;;;;;5101432;28;20052;-65
2024/02/16 05:07:36;;;;;;;38.35;19.90;;;5.00;99.90;;;;;;5101559;28;20099;-66
2024/02/16 05:10:02;;;;;;;41.75;19.27;;;;;;;;;;5101511;28;20024;-63
2024/02/16 05:12:27;;;;;;;36.03;20.20;;;4.90;99.90;;;;;;5101427;28;20023;-63
2024/02/16 05:14:53;;;;;;;33.30;18.85;;;4.90;99.90;;;;;;5101447;28;20208;-64
2024/02/16 05:17:22;;;;;;;39.88;21.35;;;4.90;99.90;;;;;;5101205;28;20036;-63
2024/02/16 05:19:48;;;;;;;41.23;21.40;;;4.90;99.90;;;;;;5101411;28;20094;-64
2024/02/16 05:22:15;;;;;;;40.67;22.42;;;5.00;99.90;;;;;;5096417;28;20213;-65
2024/02/16 05:24:40;;;;;;;37.88;20.52;;;4.90;99.90;;;;;;5061455;28;20316;-66
2024/02/16 05:27:06;;;;;;;59.08;21.80;;;4.70;99.90;;;;;;5060745;28;20029;-65
2024/02/16 05:29:31;;;;;;;46.67;22.35;;;4.70;99.90;;;;;;5059913;28;20320;-62
2024/02/16 05:31:57;;;;;;;40.50;22.08;;;4.90;99.90;;;;;;5059778;28;20095;-65
2024/02/16 05:34:23;;;;;;;33.92;20.10;;;5.00;99.90;;;;;;5059927;28;20068;-63
2024/02/16 05:36:50;;;;;;;37.17;21.08;;;4.90;99.90;;;;;;5060714;28;20036;-64
2024/02/16 05:39:26;;;;;;;38.70;19.88;;;4.90;99.90;;;;;;5061844;28;20222;-63
2024/02/16 05:41:53;;;;;;;38.35;20.52;;;4.80;99.90;;;;;;5065046;28;20075;-63
2024/02/16 05:44:19;;;;;;;39.55;20.13;;;4.80;99.90;;;;;;5084781;28;20036;-63
2024/02/16 05:46:46;;;;;;;36.60;20.05;;;4.90;99.90;;;;;;5084716;28;20024;-63
2024/02/16 05:49:12;;;;;;;36.17;19.13;;;4.90;99.90;;;;;;5084851;28;20024;-63
2024/02/16 05:51:41;;;;;;;40.22;20.70;;;4.80;99.90;;;;;;5085524;28;20201;-65
2024/02/16 05:54:12;;;;;;;33.47;19.10;;;4.60;99.90;;;;;;5085657;28;20020;-66
2024/02/16 05:56:39;;;;;;;34.35;19.85;;;4.90;99.90;;;;;;5085901;28;20125;-63
2024/02/16 05:59:05;;;;;;;31.45;18.73;;;4.80;99.90;;;;;;5085772;28;20097;-65
2024/02/16 06:01:31;;;;;;;39.78;19.60;;;4.90;99.90;;;;;;5085290;28;20035;-67
2024/02/16 06:03:56;;;;;;;35.80;19.73;;;5.10;99.90;;;;;;5085735;28;20020;-67
2024/02/16 06:06:22;;;;;;;31.00;18.60;;;5.10;99.90;;;;;;5085673;28;20055;-66
2024/02/16 06:08:48;;;;;;;32.67;19.02;;;5.10;99.90;;;;;;5078862;28;20029;-63
2024/02/16 06:11:13;;;;;;;28.75;16.83;;;5.20;99.90;;;;;;5069760;28;20035;-62
2024/02/16 06:13:40;;;;;;;34.40;18.17;;;5.30;99.90;;;;;;5084046;28;20028;-65
2024/02/16 06:16:09;;;;;;;34.10;19.02;;;5.30;99.90;;;;;;5080797;28;20026;-61
2024/02/16 06:18:35;;;;;;;31.40;17.48;;;5.20;99.90;;;;;;5085151;28;20036;-62
2024/02/16 06:21:02;;;;;;;32.85;18.75;;;5.10;99.90;;;;;;5084400;28;20033;-64
2024/02/16 06:23:27;;;;;;;37.70;18.27;;;5.20;99.90;;;;;;5084389;28;20084;-65
2024/02/16 06:25:53;;;;;;;31.80;19.35;;;5.20;99.90;;;;;;5084323;28;20220;-64
2024/02/16 06:28:18;;;;;;;37.67;21.08;;;5.40;99.90;;;;;;5084130;28;20535;-64
2024/02/16 06:30:44;;;;;;;31.40;17.98;;;5.30;99.90;;;;;;5082128;28;20031;-64
2024/02/16 06:33:10;;;;;;;31.45;18.15;;;5.30;99.90;;;;;;5104125;28;20066;-62
2024/02/16 06:35:35;;;;;;;37.78;19.23;;;5.20;99.90;;;;;;5104349;28;20073;-62
2024/02/16 06:38:01;;;;;;;38.38;20.33;;;5.40;99.90;;;;;;5104098;28;20047;-62
2024/02/16 06:40:27;;;;;;;32.50;18.80;;;5.40;99.90;;;;;;5104460;28;20016;-64
2024/02/16 06:42:54;;;;;;;32.28;18.60;;;5.50;99.90;;;;;;5104212;28;20089;-64
2024/02/16 06:45:20;;;;;;;45.72;20.15;;;;;;;;;;5104109;28;20035;-63
2024/02/16 06:47:45;;;;;;;37.40;20.67;;;5.40;99.90;;;;;;5104255;28;20020;-63
2024/02/16 06:50:11;;;;;;;33.17;20.13;;;5.20;99.90;;;;;;5103843;28;20055;-64
2024/02/16 06:52:37;;;;;;;34.50;20.08;;;5.60;99.90;;;;;;5103234;28;20312;-64
2024/02/16 06:55:03;;;;;;;38.78;20.85;;;5.50;99.90;;;;;;5104137;28;20339;-65
2024/02/16 06:57:28;;;;;;;33.78;19.33;;;5.50;99.90;;;;;;5104317;28;20090;-66
2024/02/16 06:59:57;;;;;;;32.55;17.65;;;5.70;99.90;;;;;;5097128;28;20028;-64
2024/02/16 07:02:22;;;;;;;31.25;18.38;;;5.50;99.90;;;;;;5083685;28;20035;-63
2024/02/16 07:04:48;;;;;;;32.33;18.67;;;5.70;99.90;;;;;;5083457;28;20216;-64
2024/02/16 07:07:14;;;;;;;32.63;18.55;;;5.50;99.90;;;;;;5083513;28;20017;-63
2024/02/16 07:09:39;;;;;;;35.83;18.17;;;5.70;99.90;;;;;;5067003;28;20325;-65
2024/02/16 07:12:06;;;;;;;27.67;17.17;;;5.70;99.90;;;;;;5063992;28;20101;-62
2024/02/16 07:14:32;;;;;;;34.17;18.92;;;5.80;99.90;;;;;;5063866;28;20032;-64
2024/02/16 07:16:58;;;;;;;37.13;20.35;;;5.90;99.90;;;;;;5074080;28;20035;-63
2024/02/16 07:19:24;;;;;;;40.17;19.13;;;5.90;99.90;;;;;;5084298;28;20566;-63
2024/02/16 07:21:50;;;;;;;32.65;18.00;;;6.10;99.90;;;;;;5083766;28;20055;-63
2024/02/16 07:24:16;;;;;;;36.60;19.50;;;6.30;99.90;;;;;;5083430;28;20024;-63
2024/02/16 07:26:42;;;;;;;36.47;20.50;;;6.20;99.90;;;;;;5087804;28;20216;-64
2024/02/16 07:29:08;;;;;;;31.38;18.92;;;6.30;99.90;;;;;;5090220;28;20391;-63
2024/02/16 07:31:34;;;;;;;34.88;19.17;;;6.40;99.90;;;;;;5082830;28;20016;-63
2024/02/16 07:34:02;;;;;;;35.33;18.55;;;6.80;99.90;;;;;;5082603;28;20376;-63
2024/02/16 07:36:28;;;;;;;33.90;18.80;;;6.60;99.90;;;;;;5083037;28;20029;-63
2024/02/16 07:38:53;;;;;;;33.17;20.23;;;6.70;99.90;;;;;;5081733;28;20031;-63
2024/02/16 07:41:19;;;;;;;35.13;20.50;;;6.80;99.80;;;;;;5081507;28;20016;-64
2024/02/16 07:43:44;;;;;;;30.30;19.00;;;7.10;99.90;;;;;;5082054;28;20450;-63
2024/02/16 07:46:10;;;;;;;38.65;19.92;;;7.10;99.00;;;;;;5082701;28;20030;-63
2024/02/16 07:48:36;;;;;;;33.53;19.33;;;7.20;98.40;;;;;;5082466;28;20539;-63
2024/02/16 07:51:03;;;;;;;33.70;19.20;;;7.40;99.90;;;;;;5082615;28;20058;-63
2024/02/16 07:53:29;;;;;;;30.40;17.80;;;7.60;99.90;;;;;;5082519;28;20028;-63
2024/02/16 07:55:55;;;;;;;29.25;17.38;;;7.60;99.90;;;;;;5081407;28;20009;-63
2024/02/16 07:58:20;;;;;;;33.20;19.17;;;7.70;95.70;;;;;;5080164;28;20237;-63
2024/02/16 08:00:46;;;;;;;32.75;18.23;;;7.70;99.90;;;;;;5074977;28;20031;-63
2024/02/16 08:03:11;;;;;;;31.15;16.50;;;7.80;95.70;;;;;;5061572;28;20029;-63
2024/02/16 08:05:37;;;;;;;26.92;16.17;;;7.90;95.10;;;;;;5082186;28;20536;-63
2024/02/16 08:08:03;;;;;;;27.95;16.85;;;8.00;94.50;;;;;;5081311;28;20059;-63
2024/02/16 08:10:29;;;;;;;28.00;16.75;;;8.20;93.60;;;;;;5082086;28;20012;-63
2024/02/16 08:12:55;;;;;;;25.20;15.38;;;8.20;93.60;;;;;;5082276;28;20020;-63
2024/02/16 08:15:23;;;;;;;29.67;17.55;;;8.40;92.90;;;;;;5081976;28;20044;-63
2024/02/16 08:17:52;;;;;;;26.10;16.88;;;8.40;91.60;;;;;;5082078;28;20071;-63
2024/02/16 08:20:18;;;;;;;30.73;16.38;;;8.70;99.90;;;;;;5082109;28;20021;-64
2024/02/16 08:22:44;;;;;;;31.80;17.20;;;8.60;90.40;;;;;;5082131;28;20269;-63
2024/02/16 08:25:10;;;;;;;27.50;16.55;;;8.70;90.30;;;;;;5070011;28;20020;-63
2024/02/16 08:27:38;;;;;;;29.00;16.05;;;8.80;89.90;;;;;;5062009;28;20029;-63
2024/02/16 08:30:04;;;;;;;26.63;15.13;;;8.90;88.10;;;;;;5069120;28;20008;-63
2024/02/16 08:32:30;;;;;;;24.70;14.88;;;9.00;86.80;;;;;;5081569;28;20028;-63
2024/02/16 08:34:56;;;;;;;28.75;16.17;;;9.10;86.50;;;;;;5081527;28;20072;-63
2024/02/16 08:37:21;;;;;;;25.25;16.20;;;9.10;85.50;;;;;;5081559;28;20398;-63
2024/02/16 08:39:47;;;;;;;25.75;14.68;;;9.30;83.80;;;;;;5080413;28;20047;-63
2024/02/16 08:42:13;;;;;;;22.65;15.05;;;9.30;82.20;;;;;;5081381;28;20283;-63
2024/02/16 08:44:40;;;;;;;25.10;15.15;;;9.40;82.20;;;;;;5077530;28;20028;-63
2024/02/16 08:47:07;;;;;;;22.27;15.27;;;9.40;81.70;;;;;;5061546;28;20059;-63
2024/02/16 08:49:33;;;;;;;23.55;14.90;;;9.60;80.90;;;;;;5061437;28;20028;-63
2024/02/16 08:51:59;;;;;;;23.23;15.88;;;9.80;94.80;;;;;;5061209;28;20131;-63
2024/02/16 08:54:25;;;;;;;26.55;16.15;;;9.80;79.10;;;;;;5061290;28;20029;-63
2024/02/16 08:56:54;;;;;;;31.95;15.43;;;9.90;78.10;;;;;;5061453;28;20150;-64
2024/02/16 08:59:22;;;;;;;24.40;15.43;;;10.00;77.50;;;;;;5061354;28;20037;-64
2024/02/16 09:01:49;;;;;;;19.90;14.02;;;10.10;76.70;;;;;;5077640;28;20371;-65
2024/02/16 09:04:15;;;;;;;24.23;14.77;;;10.20;76.20;;;;;;5081349;28;20322;-63
2024/02/16 09:06:41;;;;;;;25.10;15.00;;;10.30;75.70;;;;;;5080512;28;20362;-65
2024/02/16 09:09:07;;;;;;;24.85;15.32;;;10.40;75.00;;;;;;5072076;28;20028;-63
2024/02/16 09:11:33;;;;;;;24.10;15.85;;;10.50;74.10;;;;;;5063940;28;20099;-63
2024/02/16 09:13:59;;;;;;;23.48;14.98;;;10.60;73.30;;;;;;5067024;28;20028;-63
2024/02/16 09:16:25;;;;;;;25.23;16.13;;;10.70;91.70;;;;;;5068571;28;20031;-63
2024/02/16 09:18:50;;;;;;;23.35;14.68;;;10.70;72.40;;;;;;5061201;28;20392;-63
2024/02/16 09:21:16;;;;;;;23.05;14.65;;;10.80;70.80;;;;;;5060994;28;20024;-62
2024/02/16 09:23:42;;;;;;;21.27;14.60;;;10.80;71.50;;;;;;5071473;28;20040;-63
2024/02/16 09:26:09;;;;;;;26.98;15.15;;;10.80;70.70;;;;;;5080999;28;20198;-63
2024/02/16 09:28:41;;;;;;;24.85;16.13;;;10.80;70.60;;;;;;5081056;28;20016;-64
2024/02/16 09:31:08;;;;;;;26.08;16.42;;;10.90;70.50;;;;;;5081201;28;20012;-62
2024/02/16 09:33:33;;;;;;;24.63;14.13;;;11.00;70.20;;;;;;5080845;28;20048;-63
2024/02/16 09:35:59;;;;;;;24.75;14.40;;;11.10;69.80;;;;;;5081150;28;20025;-64
2024/02/16 09:38:25;;;;;;;24.15;15.55;;;11.10;69.30;;;;;;5080974;28;20029;-64
2024/02/16 09:40:51;;;;;;;23.05;14.90;;;11.10;69.40;;;;;;5081083;28;20020;-63
2024/02/16 09:43:28;;;;;;;20.02;14.50;;;11.30;69.00;;;;;;5081048;28;20083;-62
2024/02/16 09:45:59;;;;;;;25.20;15.23;;;11.40;68.50;;;;;;5080845;28;20048;-64
2024/02/16 09:48:27;;;;;;;23.27;14.30;;;11.50;68.20;;;;;;5080672;28;20335;-63
2024/02/16 09:50:58;;;;;;;22.15;14.02;;;11.60;67.50;;;;;;5080993;28;20020;-63
2024/02/16 09:53:26;;;;;;;27.00;15.68;;;11.70;67.50;;;;;;5080746;28;20036;-63
2024/02/16 09:55:52;;;;;;;23.88;14.88;;;11.80;67.00;;;;;;5080639;28;20314;-63
2024/02/16 09:58:18;;;;;;;29.05;15.13;;;11.80;66.60;;;;;;5080714;28;20032;-63
2024/02/16 10:00:55;;;;;;;25.85;15.55;;;11.90;66.60;;;;;;5081017;28;20047;-63
2024/02/16 10:03:29;;;;;;;26.60;15.82;;;12.00;66.10;;;;;;5081007;28;20021;-63
2024/02/16 10:06:09;;;;;;;26.42;15.75;;;12.00;65.40;;;;;;5080571;28;20403;-63
2024/02/16 10:08:46;;;;;;;26.63;16.05;;;12.10;65.50;;;;;;5080665;28;20062;-63
2024/02/16 10:11:11;;;;;;;25.17;15.48;;;12.20;64.90;;;;;;5080834;28;20040;-64
2024/02/16 10:13:37;;;;;;;21.27;12.98;;;12.20;64.60;;;;;;5080419;28;20020;-63
2024/02/16 10:16:11;;;;;;;23.35;14.95;;;12.30;64.40;;;;;;5080795;28;20090;-63
2024/02/16 10:18:38;;;;;;;21.65;13.43;;;12.40;64.00;;;;;;5079503;28;20501;-64
2024/02/16 10:21:04;;;;;;;23.05;14.38;;;12.50;62.30;;;;;;5079801;28;20129;-63
2024/02/16 10:23:31;;;;;;;26.13;16.17;;;12.40;63.00;;;;;;5080270;28;20472;-63
2024/02/16 10:26:00;;;;;;;19.95;14.02;;;12.50;62.40;;;;;;5082366;28;20047;-63
2024/02/16 10:28:30;;;;;;;21.40;12.88;;;12.50;62.20;;;;;;5084067;28;20351;-62
2024/02/16 10:31:05;;;;;;;21.80;13.63;;;12.50;62.20;;;;;;5083517;28;20061;-63
2024/02/16 10:33:32;;;;;;;24.85;14.32;;;12.70;62.00;;;;;;5063690;28;20385;-63
2024/02/16 10:35:59;;;;;;;19.05;10.68;;;12.80;61.40;;;;;;5064014;28;20025;-62
2024/02/16 10:38:26;;;;;;;18.70;12.55;;;12.80;60.80;;;;;;5063875;28;20281;-62
2024/02/16 10:40:54;;;;;;;21.67;13.45;;;12.80;60.50;;;;;;5062909;28;20017;-63
2024/02/16 10:43:21;;;;;;;23.10;13.88;;;12.80;60.50;;;;;;5063500;28;20024;-63
2024/02/16 10:45:47;;;;;;;22.08;12.95;;;12.90;60.00;;;;;;5062758;28;20324;-68
2024/02/16 10:48:15;;;;;;;22.95;12.88;;;12.90;59.60;;;;;;5062108;28;20032;-63
2024/02/16 10:50:41;;;;;;;23.52;13.98;;;13.00;59.40;;;;;;5062624;28;20036;-63
2024/02/16 10:53:22;;;;;;;25.33;13.32;;;13.00;59.30;;;;;;5063736;28;20020;-63
2024/02/16 10:55:50;;;;;;;19.35;12.68;;;13.10;59.00;;;;;;5063530;28;20051;-63
2024/02/16 10:58:18;;;;;;;25.65;13.00;;;13.20;58.80;;;;;;5063333;28;20293;-63
2024/02/16 11:00:54;;;;;;;25.80;13.35;;;13.20;58.40;;;;;;5063324;28;20317;-63
2024/02/16 11:03:26;;;;;;;23.35;13.70;;;13.20;58.10;;;;;;5063140;28;20064;-63
2024/02/16 11:05:52;;;;;;;21.33;11.48;;;13.20;58.20;;;;;;5063465;28;20037;-63
2024/02/16 11:08:20;;;;;;;19.45;12.02;;;13.30;58.00;;;;;;5063293;28;20032;-63
2024/02/16 11:10:59;;;;;;;17.73;11.43;;;13.30;57.70;;;;;;5063020;28;20342;-63
2024/02/16 11:13:25;;;;;;;15.70;12.05;;;13.30;57.50;;;;;;5063238;28;20071;-63
2024/02/16 11:16:17;;;;;;;17.90;11.40;;;13.40;57.20;;;;;;5062937;28;20329;-63
2024/02/16 11:18:46;;;;;;;17.13;11.75;;;13.50;56.80;;;;;;5061727;28;20353;-63
2024/02/16 11:21:14;;;;;;;17.30;11.30;;;13.50;55.80;;;;;;5062866;28;20470;-63
2024/02/16 11:23:40;;;;;;;20.90;11.82;;;13.60;56.60;;;;;;5063061;28;20033;-63
2024/02/16 11:26:13;;;;;;;19.73;12.63;;;13.60;56.20;;;;;;5062855;28;20040;-64
2024/02/16 11:28:42;;;;;;;18.30;11.32;;;13.70;56.40;;;;;;5062984;28;20220;-63
2024/02/16 11:31:08;;;;;;;19.17;11.75;;;13.80;56.20;;;;;;5062955;28;20083;-63
2024/02/16 11:33:34;;;;;;;18.75;11.20;;;13.80;55.70;;;;;;5062590;28;20345;-63
2024/02/16 11:36:03;;;;;;;24.48;10.90;;;13.70;55.90;;;;;;5062631;28;20024;-63
2024/02/16 11:38:32;;;;;;;15.10;10.50;;;13.80;56.00;;;;;;5062170;28;20041;-63
2024/02/16 11:41:00;;;;;;;15.60;10.68;;;13.90;55.80;;;;;;5062535;28;20321;-63
2024/02/16 11:43:27;;;;;;;14.25;10.35;;;14.20;75.30;;;;;;5062685;28;20033;-63
2024/02/16 11:45:53;;;;;;;17.02;9.68;;;14.10;55.40;;;;;;5062355;28;20370;-63
2024/02/16 11:48:23;;;;;;;14.20;9.50;;;14.30;55.40;;;;;;5062408;28;20087;-63
2024/02/16 11:50:58;;;;;;;15.60;8.65;;;14.30;54.80;;;;;;5062527;28;20074;-63
2024/02/16 11:53:24;;;;;;;15.82;9.32;;;14.40;55.00;;;;;;5062416;28;20341;-63
2024/02/16 11:55:50;;;;;;;12.40;8.73;;;14.50;54.80;;;;;;5062235;28;20021;-63
2024/02/16 11:58:19;;;;;;;12.90;8.73;;;14.60;54.70;;;;;;5062288;28;20033;-63
2024/02/16 12:00:52;;;;;;;11.73;7.03;;;15.00;73.50;;;;;;5062490;28;20096;-63
2024/02/16 12:03:28;;;;;;;11.73;7.05;;;14.60;54.10;;;;;;5062220;28;20343;-63
2024/02/16 12:05:55;;;;;;;13.93;7.03;;;14.60;54.00;;;;;;5062350;28;20109;-63
2024/02/16 12:08:21;;;;;;;13.70;7.35;;;14.50;54.30;;;;;;5062059;28;20020;-63
2024/02/16 12:10:51;;;;;;;10.35;7.05;;;14.50;53.80;;;;;;5062054;28;20051;-63
2024/02/16 12:13:18;;;;;;;12.55;7.43;;;14.50;53.80;;;;;;5062034;28;20126;-63
2024/02/16 12:15:45;;;;;;;10.13;7.22;;;14.50;54.10;;;;;;5062077;28;20052;-63
2024/02/16 12:18:18;;;;;;;12.32;7.13;;;14.60;54.10;;;;;;5061714;28;20383;-63
2024/02/16 12:20:48;;;;;;;13.50;7.43;;;15.00;72.60;;;;;;5061811;28;20078;-63
2024/02/16 12:23:14;;;;;;;11.45;7.43;;;14.90;53.60;;;;;;5061955;28;20032;-63
2024/02/16 12:25:39;;;;;;;12.63;7.82;;;14.90;53.40;;;;;;5061804;28;20019;-63
2024/02/16 12:28:05;;;;;;;11.32;7.78;;;15.00;53.20;;;;;;5061513;28;20044;-63
2024/02/16 12:30:31;;;;;;;13.48;7.70;;;15.00;52.80;;;;;;5061742;28;20021;-63
2024/02/16 12:32:57;;;;;;;10.82;6.80;;;15.10;52.70;;;;;;5061209;28;20568;-63